createdAt,value
2023-05-22T00:00:35.655Z,24.30
2023-05-22T00:03:06.259Z,24.34
2023-05-22T00:05:39.503Z,24.25
2023-05-22T00:08:11.799Z,24.27
2023-05-22T00:10:41.335Z,24.16
2023-05-22T00:13:13.379Z,24.17
2023-05-22T00:15:42.853Z,24.19
2023-05-22T00:18:13.867Z,24.07
2023-05-22T00:20:47.714Z,24.07
2023-05-22T00:23:17.369Z,24.18
2023-05-22T00:25:52.501Z,24.26
2023-05-22T00:28:24.708Z,24.17
2023-05-22T00:30:55.492Z,24.09
2023-05-22T00:33:24.899Z,23.99
2023-05-22T00:35:54.284Z,23.98
2023-05-22T00:38:35.005Z,23.90
2023-05-22T00:41:05.189Z,23.90
2023-05-22T00:43:37.389Z,23.98
2023-05-22T00:46:07.690Z,24.02
2023-05-22T00:48:37.406Z,23.93
2023-05-22T00:51:07.559Z,24.07
2023-05-22T00:53:37.318Z,24.04
2023-05-22T00:56:09.032Z,24.08
2023-05-22T00:58:41.430Z,23.99
2023-05-22T01:01:11.591Z,24.00
2023-05-22T01:03:42.664Z,23.96
2023-05-22T01:06:12.095Z,23.94
2023-05-22T01:08:41.535Z,23.75
2023-05-22T01:11:16.874Z,23.88
2023-05-22T01:13:56.560Z,23.89
2023-05-22T01:16:33.796Z,23.93
2023-05-22T01:19:12.577Z,23.83
2023-05-22T01:21:49.273Z,23.62
2023-05-22T01:24:52.472Z,23.58
2023-05-22T01:27:37.926Z,23.59
2023-05-22T01:30:30.325Z,23.55
2023-05-22T01:33:03.185Z,23.66
2023-05-22T01:35:36.198Z,23.52
2023-05-22T01:38:06.100Z,23.62
2023-05-22T01:40:35.597Z,23.43
2023-05-22T01:43:05.186Z,23.32
2023-05-22T01:45:35.121Z,23.29
2023-05-22T01:48:07.709Z,23.24
2023-05-22T01:50:37.876Z,23.22
2023-05-22T01:53:14.879Z,23.08
2023-05-22T01:55:56.019Z,23.15
2023-05-22T01:58:31.840Z,23.27
2023-05-22T02:01:03.902Z,23.32
2023-05-22T02:03:39.180Z,23.23
2023-05-22T02:06:12.037Z,23.23
2023-05-22T02:08:43.833Z,23.09
2023-05-22T02:11:16.689Z,23.19
2023-05-22T02:13:46.382Z,23.23
2023-05-22T02:16:15.950Z,23.25
2023-05-22T02:18:48.450Z,23.25
2023-05-22T02:21:17.837Z,23.30
2023-05-22T02:23:47.358Z,23.33
2023-05-22T02:26:16.752Z,23.33
2023-05-22T02:28:46.093Z,23.36
2023-05-22T02:31:16.412Z,23.39
2023-05-22T02:33:48.510Z,23.27
2023-05-22T02:36:17.937Z,23.29
2023-05-22T02:38:47.293Z,23.27
2023-05-22T02:41:16.671Z,23.35
2023-05-22T02:43:46.028Z,23.41
2023-05-22T02:46:18.137Z,23.39
2023-05-22T02:48:50.562Z,23.40
2023-05-22T02:51:20.386Z,23.35
2023-05-22T02:53:49.784Z,23.26
2023-05-22T02:56:19.221Z,22.95
2023-05-22T02:58:48.599Z,23.16
2023-05-22T03:01:17.997Z,23.19
2023-05-22T03:03:50.804Z,23.27
2023-05-22T03:06:20.389Z,23.24
2023-05-22T03:08:49.828Z,23.13
2023-05-22T03:11:21.570Z,23.22
2023-05-22T03:13:51.026Z,23.08
2023-05-22T03:16:21.915Z,23.07
2023-05-22T03:18:54.456Z,23.09
2023-05-22T03:21:23.817Z,23.05
2023-05-22T03:23:53.173Z,23.01
2023-05-22T03:26:22.820Z,22.99
2023-05-22T03:28:52.924Z,22.98
2023-05-22T03:31:23.016Z,22.98
2023-05-22T03:33:54.989Z,23.06
2023-05-22T03:36:25.362Z,22.99
2023-05-22T03:38:54.754Z,22.95
2023-05-22T03:41:24.254Z,22.98
2023-05-22T03:43:55.259Z,23.03
2023-05-22T03:46:24.755Z,22.85
2023-05-22T03:48:56.821Z,22.74
2023-05-22T03:51:26.225Z,22.87
2023-05-22T03:53:58.519Z,22.86
2023-05-22T03:56:30.817Z,22.80
2023-05-22T03:59:00.690Z,22.63
2023-05-22T04:01:31.135Z,22.63
2023-05-22T04:04:05.626Z,22.48
2023-05-22T04:06:43.264Z,22.37
2023-05-22T04:09:14.098Z,22.63
2023-05-22T04:11:43.545Z,22.66
2023-05-22T04:14:13.172Z,22.65
2023-05-22T04:16:42.509Z,22.74
2023-05-22T04:19:14.476Z,22.74
2023-05-22T04:21:44.264Z,22.73
2023-05-22T04:24:13.767Z,22.69
2023-05-22T04:26:43.398Z,22.70
2023-05-22T04:29:14.776Z,22.55
2023-05-22T04:31:44.710Z,22.71
2023-05-22T04:34:18.614Z,22.71
2023-05-22T04:36:48.204Z,22.77
2023-05-22T04:39:17.801Z,22.74
2023-05-22T04:41:47.179Z,22.83
2023-05-22T04:44:19.089Z,22.78
2023-05-22T04:46:50.789Z,22.76
2023-05-22T04:49:24.892Z,22.80
2023-05-22T04:51:55.276Z,22.71
2023-05-22T04:54:26.580Z,22.83
2023-05-22T04:56:56.137Z,22.84
2023-05-22T04:59:26.699Z,22.82
2023-05-22T05:01:56.162Z,22.82
2023-05-22T05:04:28.121Z,22.70
2023-05-22T05:06:57.717Z,22.72
2023-05-22T05:09:27.390Z,22.51
2023-05-22T05:11:58.366Z,22.55
2023-05-22T05:14:27.813Z,22.51
2023-05-22T05:16:58.880Z,22.55
2023-05-22T05:19:30.897Z,22.53
2023-05-22T05:22:00.791Z,22.42
2023-05-22T05:24:30.476Z,22.50
2023-05-22T05:26:59.950Z,22.49
2023-05-22T05:29:29.311Z,22.47
2023-05-22T05:31:58.712Z,22.42
2023-05-22T05:34:30.712Z,22.43
2023-05-22T05:37:00.108Z,22.40
2023-05-22T05:39:29.869Z,22.50
2023-05-22T05:41:59.234Z,22.45
2023-05-22T05:44:28.625Z,22.14
2023-05-22T05:46:58.093Z,22.36
2023-05-22T05:49:27.470Z,22.15
2023-05-22T05:51:59.646Z,22.08
2023-05-22T05:54:29.014Z,22.25
2023-05-22T05:56:58.400Z,22.30
2023-05-22T05:59:27.745Z,22.22
2023-05-22T06:01:57.204Z,22.20
2023-05-22T06:04:28.282Z,22.15
2023-05-22T06:07:04.013Z,22.18
2023-05-22T06:09:33.372Z,22.14
2023-05-22T06:12:03.890Z,22.30
2023-05-22T06:14:33.519Z,22.33
2023-05-22T06:17:02.898Z,22.20
2023-05-22T06:19:32.313Z,22.32
2023-05-22T06:22:07.781Z,22.29
2023-05-22T06:24:37.149Z,22.30
2023-05-22T06:27:06.664Z,22.31
2023-05-22T06:29:36.158Z,22.18
2023-05-22T06:32:05.602Z,22.10
2023-05-22T06:34:35.019Z,22.11
2023-05-22T06:37:07.126Z,22.15
2023-05-22T06:39:36.608Z,22.17
2023-05-22T06:42:06.205Z,22.25
2023-05-22T06:44:35.576Z,22.23
2023-05-22T06:47:05.009Z,22.33
2023-05-22T06:49:34.411Z,22.21
2023-05-22T06:52:05.324Z,22.42
2023-05-22T06:54:37.505Z,22.59
2023-05-22T06:57:07.083Z,22.51
2023-05-22T06:59:37.442Z,22.66
2023-05-22T07:02:07.042Z,22.67
2023-05-22T07:04:36.467Z,22.70
2023-05-22T07:07:05.847Z,22.80
2023-05-22T07:09:37.788Z,22.58
2023-05-22T07:12:08.237Z,22.61
2023-05-22T07:14:37.669Z,22.71
2023-05-22T07:17:07.459Z,22.45
2023-05-22T07:19:36.839Z,22.62
2023-05-22T07:22:06.850Z,22.51
2023-05-22T07:24:38.850Z,22.61
2023-05-22T07:27:09.339Z,22.72
2023-05-22T07:29:38.957Z,22.76
2023-05-22T07:32:09.120Z,22.67
2023-05-22T07:34:39.086Z,22.97
2023-05-22T07:37:10.824Z,22.88
2023-05-22T07:39:42.906Z,23.05
2023-05-22T07:42:14.760Z,23.12
2023-05-22T07:44:44.132Z,23.25
2023-05-22T07:47:13.531Z,23.37
2023-05-22T07:49:43.052Z,23.34
2023-05-22T07:52:12.422Z,23.49
2023-05-22T07:54:45.536Z,23.58
2023-05-22T07:57:16.679Z,23.78
2023-05-22T07:59:46.471Z,23.78
2023-05-22T08:02:16.280Z,23.87
2023-05-22T08:04:45.742Z,23.85
2023-05-22T08:07:15.568Z,24.19
2023-05-22T08:09:48.189Z,24.21
2023-05-22T08:12:17.584Z,24.30
2023-05-22T08:14:46.953Z,24.32
2023-05-22T08:17:16.423Z,24.41
2023-05-22T08:19:46.221Z,24.37
2023-05-22T08:22:15.853Z,24.45
2023-05-22T08:24:47.837Z,24.47
2023-05-22T08:27:17.489Z,24.63
2023-05-22T08:29:46.850Z,24.92
2023-05-22T08:32:16.380Z,24.84
2023-05-22T08:34:47.145Z,25.33
2023-05-22T08:37:16.982Z,25.05
2023-05-22T08:39:48.951Z,25.08
2023-05-22T08:42:18.359Z,25.07
2023-05-22T08:44:49.044Z,25.19
2023-05-22T08:47:20.714Z,25.29
2023-05-22T08:49:54.871Z,25.19
2023-05-22T08:52:26.436Z,25.28
2023-05-22T08:54:59.527Z,25.63
2023-05-22T08:57:29.497Z,25.64
2023-05-22T08:59:59.144Z,25.46
2023-05-22T09:02:29.557Z,25.49
2023-05-22T09:04:59.187Z,25.55
2023-05-22T09:07:30.125Z,25.65
2023-05-22T09:10:05.423Z,25.85
2023-05-22T09:12:35.014Z,25.94
2023-05-22T09:15:11.734Z,25.76
2023-05-22T09:17:42.656Z,26.05
2023-05-22T09:20:16.245Z,25.89
2023-05-22T09:22:45.802Z,26.02
2023-05-22T09:25:20.926Z,26.00
2023-05-22T09:27:50.944Z,26.19
2023-05-22T09:30:21.136Z,26.58
2023-05-22T09:32:51.796Z,26.16
2023-05-22T09:35:22.219Z,26.32
2023-05-22T09:37:52.754Z,26.49
2023-05-22T09:40:25.224Z,26.90
2023-05-22T09:42:54.606Z,26.91
2023-05-22T09:45:26.760Z,26.86
2023-05-22T09:47:56.219Z,26.39
2023-05-22T09:50:25.627Z,26.36
2023-05-22T09:52:55.959Z,26.41
2023-05-22T09:55:29.936Z,26.60
2023-05-22T09:58:00.216Z,27.07
2023-05-22T10:00:31.644Z,27.01
2023-05-22T10:03:05.380Z,27.00
2023-05-22T10:05:35.177Z,27.38
2023-05-22T10:08:13.521Z,27.11
2023-05-22T10:10:50.429Z,27.13
2023-05-22T10:13:20.165Z,26.96
2023-05-22T10:15:50.737Z,26.97
2023-05-22T10:18:20.672Z,26.91
2023-05-22T10:20:50.875Z,26.83
2023-05-22T10:23:20.633Z,27.04
2023-05-22T10:25:53.461Z,27.46
2023-05-22T10:28:27.499Z,27.76
2023-05-22T10:31:03.185Z,27.58
2023-05-22T10:33:36.726Z,27.30
2023-05-22T10:36:10.543Z,27.18
2023-05-22T10:39:10.472Z,27.39
2023-05-22T10:41:43.029Z,27.44
2023-05-22T10:44:12.630Z,27.53
2023-05-22T10:46:42.021Z,27.20
2023-05-22T10:49:11.407Z,27.35
2023-05-22T10:51:40.909Z,27.69
2023-05-22T10:54:10.309Z,27.67
2023-05-22T10:56:42.418Z,27.95
2023-05-22T10:59:11.832Z,27.80
2023-05-22T11:01:41.247Z,28.49
2023-05-22T11:04:16.159Z,28.10
2023-05-22T11:06:49.117Z,27.87
2023-05-22T11:09:32.319Z,27.64
2023-05-22T11:12:28.707Z,27.74
2023-05-22T11:15:01.182Z,28.12
2023-05-22T11:17:31.977Z,27.83
2023-05-22T11:20:05.138Z,27.80
2023-05-22T11:22:36.764Z,27.79
2023-05-22T11:25:10.889Z,27.87
2023-05-22T11:27:44.298Z,27.98
2023-05-22T11:30:14.507Z,27.95
2023-05-22T11:32:46.046Z,28.04
2023-05-22T11:35:17.613Z,28.04
2023-05-22T11:37:47.821Z,28.02
2023-05-22T11:40:19.093Z,28.12
2023-05-22T11:42:51.704Z,28.18
2023-05-22T11:45:21.636Z,28.09
2023-05-22T11:47:51.565Z,28.20
2023-05-22T11:50:33.506Z,28.11
2023-05-22T11:53:10.962Z,28.49
2023-05-22T11:55:40.356Z,28.10
2023-05-22T11:58:12.271Z,28.39
2023-05-22T12:00:42.508Z,28.24
2023-05-22T12:03:12.146Z,28.13
2023-05-22T12:05:41.619Z,28.12
2023-05-22T12:08:11.113Z,27.98
2023-05-22T12:10:40.809Z,28.10
2023-05-22T12:13:12.909Z,27.98
2023-05-22T12:15:42.746Z,28.15
2023-05-22T12:18:12.532Z,28.06
2023-05-22T12:20:45.455Z,28.09
2023-05-22T12:23:15.238Z,28.18
2023-05-22T12:25:44.701Z,28.24
2023-05-22T12:28:16.666Z,28.29
2023-05-22T12:30:46.039Z,28.46
2023-05-22T12:33:16.745Z,28.37
2023-05-22T12:35:46.339Z,28.27
2023-05-22T12:38:15.979Z,28.33
2023-05-22T12:40:46.324Z,28.28
2023-05-22T12:43:18.328Z,28.23
2023-05-22T12:45:47.899Z,28.19
2023-05-22T12:48:17.534Z,28.39
2023-05-22T12:50:47.537Z,28.37
2023-05-22T12:53:17.617Z,28.57
2023-05-22T12:55:46.982Z,28.47
2023-05-22T12:58:19.000Z,28.69
2023-05-22T13:00:48.349Z,28.59
2023-05-22T13:03:17.768Z,28.32
2023-05-22T13:05:47.373Z,28.37
2023-05-22T13:08:16.778Z,28.28
2023-05-22T13:10:46.204Z,28.27
2023-05-22T13:13:15.579Z,28.39
2023-05-22T13:15:48.144Z,28.62
2023-05-22T13:18:17.800Z,28.84
2023-05-22T13:20:47.209Z,28.90
2023-05-22T13:23:16.591Z,28.71
2023-05-22T13:25:46.297Z,28.99
2023-05-22T13:28:15.653Z,28.67
2023-05-22T13:30:47.644Z,28.67
2023-05-22T13:33:17.047Z,28.62
2023-05-22T13:35:46.524Z,28.58
2023-05-22T13:38:15.996Z,28.43
2023-05-22T13:40:48.216Z,28.57
2023-05-22T13:43:17.931Z,28.84
2023-05-22T13:45:50.399Z,28.70
2023-05-22T13:48:19.875Z,28.61
2023-05-22T13:50:49.234Z,28.59
2023-05-22T13:53:18.608Z,28.39
2023-05-22T13:55:47.964Z,28.50
2023-05-22T13:58:17.421Z,28.52
2023-05-22T14:00:47.046Z,28.51
2023-05-22T14:03:19.951Z,28.44
2023-05-22T14:05:49.381Z,28.49
2023-05-22T14:08:18.783Z,28.32
2023-05-22T14:10:48.179Z,28.28
2023-05-22T14:13:18.090Z,28.28
2023-05-22T14:15:48.043Z,28.24
2023-05-22T14:18:20.069Z,28.21
2023-05-22T14:20:49.815Z,28.19
2023-05-22T14:23:19.420Z,28.20
2023-05-22T14:25:49.573Z,28.29
2023-05-22T14:28:19.141Z,28.45
2023-05-22T14:30:48.577Z,28.50
2023-05-22T14:33:20.601Z,28.63
2023-05-22T14:35:51.754Z,28.54
2023-05-22T14:38:21.158Z,28.42
2023-05-22T14:40:51.444Z,28.43
2023-05-22T14:43:20.812Z,28.37
2023-05-22T14:45:50.563Z,28.43
2023-05-22T14:48:26.296Z,28.48
2023-05-22T14:50:56.322Z,28.16
2023-05-22T14:53:26.177Z,28.24
2023-05-22T14:55:55.580Z,28.09
2023-05-22T14:58:24.933Z,28.20
2023-05-22T15:00:54.317Z,28.25
2023-05-22T15:03:26.452Z,28.06
2023-05-22T15:05:55.808Z,27.96
2023-05-22T15:08:25.201Z,28.04
2023-05-22T15:10:54.797Z,28.07
2023-05-22T15:13:24.147Z,27.91
2023-05-22T15:15:53.757Z,27.89
2023-05-22T15:18:27.084Z,27.73
2023-05-22T15:20:56.868Z,27.87
2023-05-22T15:23:27.349Z,27.90
2023-05-22T15:25:56.989Z,28.00
2023-05-22T15:28:26.359Z,28.17
2023-05-22T15:30:55.785Z,28.00
2023-05-22T15:33:27.752Z,28.16
2023-05-22T15:35:57.648Z,28.17
2023-05-22T15:38:28.352Z,28.15
2023-05-22T15:40:57.785Z,28.27
2023-05-22T15:43:27.928Z,28.35
2023-05-22T15:45:57.331Z,28.29
2023-05-22T15:48:29.350Z,28.30
2023-05-22T15:50:59.283Z,28.32
2023-05-22T15:53:29.067Z,28.32
2023-05-22T15:55:58.438Z,28.22
2023-05-22T15:58:31.249Z,28.02
2023-05-22T16:01:00.728Z,28.14
2023-05-22T16:03:32.937Z,27.85
2023-05-22T16:06:02.385Z,27.56
2023-05-22T16:08:31.757Z,27.46
2023-05-22T16:11:03.442Z,27.35
2023-05-22T16:13:33.209Z,27.00
2023-05-22T16:16:03.479Z,27.20
2023-05-22T16:18:35.801Z,26.90
2023-05-22T16:21:05.178Z,26.32
2023-05-22T16:23:34.711Z,26.43
2023-05-22T16:26:09.306Z,26.33
2023-05-22T16:28:38.652Z,26.23
2023-05-22T16:31:08.860Z,25.81
2023-05-22T16:33:40.867Z,25.76
2023-05-22T16:36:10.703Z,25.61
2023-05-22T16:38:40.075Z,25.35
2023-05-22T16:41:09.417Z,25.50
2023-05-22T16:43:39.717Z,25.33
2023-05-22T16:46:09.128Z,25.28
2023-05-22T16:48:41.077Z,25.42
2023-05-22T16:51:11.533Z,24.91
2023-05-22T16:53:42.985Z,24.88
2023-05-22T16:56:12.497Z,24.61
2023-05-22T16:58:41.841Z,24.65
2023-05-22T17:01:11.576Z,24.99
2023-05-22T17:03:43.617Z,24.55
2023-05-22T17:06:13.105Z,24.68
2023-05-22T17:08:42.509Z,24.90
2023-05-22T17:11:11.916Z,24.79
2023-05-22T17:13:41.397Z,24.78
2023-05-22T17:16:10.845Z,24.90
2023-05-22T17:18:42.888Z,25.18
2023-05-22T17:21:12.272Z,25.17
2023-05-22T17:23:41.655Z,25.23
2023-05-22T17:26:11.077Z,24.80
2023-05-22T17:28:40.513Z,24.84
2023-05-22T17:31:10.104Z,24.83
2023-05-22T17:33:39.549Z,24.29
2023-05-22T17:36:11.604Z,24.09
2023-05-22T17:38:41.096Z,23.88
2023-05-22T17:41:10.450Z,24.39
2023-05-22T17:43:39.880Z,24.38
2023-05-22T17:46:09.377Z,24.52
2023-05-22T17:48:40.986Z,24.61
2023-05-22T17:51:13.017Z,24.81
2023-05-22T17:53:42.394Z,24.85
2023-05-22T17:56:11.942Z,25.19
2023-05-22T17:58:41.418Z,25.25
2023-05-22T18:01:10.804Z,25.45
2023-05-22T18:03:40.275Z,25.58
2023-05-22T18:06:10.200Z,25.65
2023-05-22T18:08:42.653Z,25.58
2023-05-22T18:11:12.148Z,25.62
2023-05-22T18:13:41.662Z,25.65
2023-05-22T18:16:11.446Z,25.77
2023-05-22T18:18:41.206Z,25.55
2023-05-22T18:21:10.884Z,25.50
2023-05-22T18:23:43.166Z,25.52
2023-05-22T18:26:12.851Z,25.39
2023-05-22T18:28:42.654Z,25.44
2023-05-22T18:31:12.125Z,25.34
2023-05-22T18:33:44.875Z,25.36
2023-05-22T18:36:15.059Z,25.36
2023-05-22T18:38:47.039Z,25.10
2023-05-22T18:41:16.429Z,24.96
2023-05-22T18:43:45.902Z,25.09
2023-05-22T18:46:15.320Z,25.33
2023-05-22T18:48:44.748Z,25.44
2023-05-22T18:51:14.248Z,25.40
2023-05-22T18:53:43.630Z,25.48
2023-05-22T18:56:15.636Z,25.45
2023-05-22T18:58:45.063Z,25.32
2023-05-22T19:01:16.799Z,24.98
2023-05-22T19:03:46.283Z,24.65
2023-05-22T19:06:16.152Z,24.68
2023-05-22T19:08:45.954Z,24.81
2023-05-22T19:11:17.934Z,24.74
2023-05-22T19:13:47.732Z,24.87
2023-05-22T19:16:17.454Z,24.99
2023-05-22T19:18:46.934Z,25.14
2023-05-22T19:21:16.342Z,25.01
2023-05-22T19:23:46.139Z,25.12
2023-05-22T19:26:18.108Z,25.13
2023-05-22T19:28:47.515Z,25.01
2023-05-22T19:31:17.722Z,25.04
2023-05-22T19:33:47.147Z,24.99
2023-05-22T19:36:16.561Z,24.47
2023-05-22T19:38:45.928Z,24.49
2023-05-22T19:41:18.624Z,24.45
2023-05-22T19:43:48.051Z,24.60
2023-05-22T19:46:17.507Z,23.89
2023-05-22T19:48:47.010Z,23.71
2023-05-22T19:51:16.787Z,24.09
2023-05-22T19:53:46.328Z,24.23
2023-05-22T19:56:20.212Z,24.28
2023-05-22T19:58:49.613Z,24.36
2023-05-22T20:01:19.210Z,24.19
2023-05-22T20:03:48.737Z,24.25
2023-05-22T20:06:18.163Z,24.12
2023-05-22T20:08:48.619Z,24.36
2023-05-22T20:11:20.671Z,24.02
2023-05-22T20:13:50.124Z,23.76
2023-05-22T20:16:19.568Z,23.80
2023-05-22T20:18:49.063Z,23.58
2023-05-22T20:21:18.544Z,23.53
2023-05-22T20:23:53.613Z,23.60
2023-05-22T20:26:26.227Z,23.67
2023-05-22T20:28:56.776Z,23.92
2023-05-22T20:31:26.206Z,23.97
2023-05-22T20:33:55.676Z,24.10
2023-05-22T20:36:25.259Z,24.27
2023-05-22T20:38:58.701Z,24.32
2023-05-22T20:41:30.864Z,24.32
2023-05-22T20:44:00.686Z,24.43
2023-05-22T20:46:30.152Z,24.52
2023-05-22T20:48:59.915Z,24.56
2023-05-22T20:51:33.666Z,24.40
2023-05-22T20:54:03.203Z,24.53
2023-05-22T20:56:35.218Z,24.58
2023-05-22T20:59:04.603Z,24.61
2023-05-22T21:01:34.001Z,24.60
2023-05-22T21:04:03.462Z,24.68
2023-05-22T21:06:33.093Z,24.62
2023-05-22T21:09:02.524Z,24.53
2023-05-22T21:11:31.857Z,24.44
2023-05-22T21:14:03.853Z,24.52
2023-05-22T21:16:33.305Z,24.61
2023-05-22T21:19:02.938Z,24.38
2023-05-22T21:21:32.717Z,24.32
2023-05-22T21:24:04.606Z,24.55
2023-05-22T21:26:36.597Z,24.51
2023-05-22T21:29:08.768Z,24.52
2023-05-22T21:31:40.133Z,24.45
2023-05-22T21:34:09.986Z,24.36
2023-05-22T21:36:39.401Z,24.36
2023-05-22T21:39:10.757Z,24.39
2023-05-22T21:41:41.983Z,24.45
2023-05-22T21:44:15.860Z,24.49
2023-05-22T21:46:45.221Z,24.41
2023-05-22T21:49:14.734Z,24.52
2023-05-22T21:51:44.248Z,24.29
2023-05-22T21:54:16.216Z,24.32
2023-05-22T21:56:45.707Z,24.38
2023-05-22T21:59:18.097Z,24.15
2023-05-22T22:01:47.508Z,24.31
2023-05-22T22:04:16.873Z,24.26
2023-05-22T22:06:48.182Z,24.24
2023-05-22T22:09:17.600Z,23.93
2023-05-22T22:11:48.784Z,24.12
2023-05-22T22:14:20.865Z,24.09
2023-05-22T22:16:50.834Z,24.12
2023-05-22T22:19:20.534Z,24.09
2023-05-22T22:21:50.047Z,24.10
2023-05-22T22:24:19.670Z,24.00
2023-05-22T22:26:49.338Z,23.83
2023-05-22T22:29:21.343Z,23.53
2023-05-22T22:31:50.736Z,23.91
2023-05-22T22:34:20.250Z,23.88
2023-05-22T22:36:49.599Z,24.09
2023-05-22T22:39:18.953Z,24.02
2023-05-22T22:41:48.511Z,23.82
2023-05-22T22:44:17.862Z,23.90
2023-05-22T22:46:49.803Z,23.87
2023-05-22T22:49:21.797Z,23.69
2023-05-22T22:51:51.928Z,23.53
2023-05-22T22:54:21.343Z,23.67
2023-05-22T22:56:51.522Z,23.58
2023-05-22T22:59:21.230Z,23.37
2023-05-22T23:01:53.341Z,23.29
2023-05-22T23:04:22.997Z,23.19
2023-05-22T23:06:54.091Z,23.13
2023-05-22T23:09:23.482Z,23.16
2023-05-22T23:11:56.120Z,23.01
2023-05-22T23:14:25.532Z,22.94
2023-05-22T23:16:57.490Z,22.95
2023-05-22T23:19:27.028Z,22.95
2023-05-22T23:21:56.420Z,22.90
2023-05-22T23:24:25.820Z,22.82
2023-05-22T23:26:55.656Z,22.76
2023-05-22T23:29:25.053Z,22.69
2023-05-22T23:31:59.665Z,22.82
2023-05-22T23:34:29.119Z,22.70
2023-05-22T23:36:58.465Z,22.77
2023-05-22T23:39:27.853Z,22.62
2023-05-22T23:41:57.186Z,22.62
2023-05-22T23:44:26.529Z,22.65
2023-05-22T23:46:59.593Z,22.59
2023-05-22T23:49:29.144Z,22.53
2023-05-22T23:51:58.504Z,22.38
2023-05-22T23:54:27.991Z,22.57
2023-05-22T23:56:57.418Z,22.56
2023-05-22T23:59:26.827Z,22.75
